Indianapolis, IN

2:23 AM EDT on August 29, 2015 (GMT -0400)
North Fountain Square | | Change Station
CLOSE
Current Station
Personal Weather Station
Location: Indianapolis, IN
Elevation: 738 ft
Nearby Weather Stations

Elev 738 ft 39.76 °N, 86.14 °W | Updated 2 seconds ago

Partly Cloudy
Partly Cloudy
66.6 °F
Feels Like 66.6 °F
N
0.0
Wind Variable Wind from SSE
Gusts 0.0 mph

Today
High -- | Low -- °F
--% Chance of Precip.
Yesterday
High -- | Low -- °F
Precip. -- in
7:09 AM 8:20 PM
Full, 100% visible
Pressure 30.07 in
Visibility 10.0 miles
Clouds Mostly Cloudy 22000 ft
Dew Point 53 °F
Humidity 62%
Rainfall 0.00 in
Snow Depth Not available.
UV 0 out of 12
Pollen 10.50 out of 12
Air Quality Not available.
Flu Activity Not available.
METAR KIND 290554Z 14008KT 10SM BKN220 18/14 A3008 RMK AO2 SLP182 T01830144 10228 20178 55001
Pressure 30.07 in
Visibility 10.0 miles
Clouds Mostly Cloudy 22000 ft
Dew Point 53 °F
Humidity 62%
Rainfall 0.00 in
Snow Depth Not available.
UV 0 out of 12
Pollen 10.50 out of 12
Air Quality Not available.
Flu Activity Not available.
METAR KIND 290554Z 14008KT 10SM BKN220 18/14 A3008 RMK AO2 SLP182 T01830144 10228 20178 55001

10-Day Weather Forecast

×

Almanac

Astronomy

Aug. 29, 2015 Rise Set
Actual Time
Civil Twilight
Nautical Twilight
Astronomical Twilight
Moon
Length of Visible Light
Length of Day
Tomorrow will be .
, % of the Moon is Illuminated

Today's Extremes

State Highs State Lows

Community

WunderPhotos

Upload Photos

1,850,622 photos uploaded!

WunderBlogs® & News

Nearby

Air Quality

  Air Quality AQ Index Pollutant
Not available.

Snow Depth

Station Depth Elevation

Earthquake Activity

City Distance Mag. Time & Date
Minimum magnitude displayed is 2.5.

Coastal Water Temperatures

Place Temperature

Stations

Nearby Weather Stations

Station Location Temp. Windchill Dew Point Humidity Wind Precip. Elev Updated Type